Terminal Aerodrome Forecast
Issued by NWS

Home | Current Version | Previous Version | Text Only | Print | Product List | Glossary On
Versions: 1 2 3 4 5 6 7 8 9 10 11 12
739
FTUS46 KLOX 122338
TAFBUR
TAF
KBUR 122338Z 1300/1324 17007KT P6SM BKN250
     FM130300 VRB03KT P6SM BKN250
     FM132200 16009KT P6SM SCT250=

USA.gov is the U.S. government's official web portal to all federal, state and local government web resources and services.